sensor_id;sensor_type;location;lat;lon;timestamp;P1;durP1;ratioP1;P2;durP2;ratioP2
10335;SDS011;5213;53.548;9.930;2022-09-09T00:04:32;53.35;;;28.38;;
10335;SDS011;5213;53.548;9.930;2022-09-09T00:07:18;48.95;;;28.55;;
10335;SDS011;5213;53.548;9.930;2022-09-09T00:15:19;60.10;;;30.33;;
10335;SDS011;5213;53.548;9.930;2022-09-09T00:23:11;60.67;;;29.30;;
10335;SDS011;5213;53.548;9.930;2022-09-09T00:25:43;67.80;;;31.67;;
10335;SDS011;5213;53.548;9.930;2022-09-09T00:28:20;64.70;;;31.10;;
10335;SDS011;5213;53.548;9.930;2022-09-09T00:30:50;65.38;;;31.42;;
10335;SDS011;5213;53.548;9.930;2022-09-09T00:33:17;67.72;;;33.63;;
10335;SDS011;5213;53.548;9.930;2022-09-09T00:35:53;74.03;;;35.65;;
10335;SDS011;5213;53.548;9.930;2022-09-09T00:38:31;76.88;;;35.85;;
10335;SDS011;5213;53.548;9.930;2022-09-09T00:43:40;74.10;;;33.78;;
10335;SDS011;5213;53.548;9.930;2022-09-09T00:57:46;83.50;;;36.63;;
10335;SDS011;5213;53.548;9.930;2022-09-09T01:00:21;88.50;;;37.47;;
10335;SDS011;5213;53.548;9.930;2022-09-09T01:05:36;79.35;;;35.70;;
10335;SDS011;5213;53.548;9.930;2022-09-09T01:10:58;78.82;;;34.55;;
10335;SDS011;5213;53.548;9.930;2022-09-09T01:16:01;68.88;;;32.65;;
10335;SDS011;5213;53.548;9.930;2022-09-09T01:18:29;67.28;;;32.42;;
10335;SDS011;5213;53.548;9.930;2022-09-09T01:24:05;68.70;;;31.15;;
10335;SDS011;5213;53.548;9.930;2022-09-09T01:26:43;66.97;;;31.40;;
10335;SDS011;5213;53.548;9.930;2022-09-09T01:29:14;67.85;;;31.65;;
10335;SDS011;5213;53.548;9.930;2022-09-09T01:31:42;79.55;;;33.85;;
10335;SDS011;5213;53.548;9.930;2022-09-09T01:34:30;71.90;;;31.90;;
10335;SDS011;5213;53.548;9.930;2022-09-09T01:37:07;93.28;;;30.38;;
10335;SDS011;5213;53.548;9.930;2022-09-09T01:39:35;92.18;;;34.85;;
10335;SDS011;5213;53.548;9.930;2022-09-09T01:42:02;89.78;;;33.88;;
10335;SDS011;5213;53.548;9.930;2022-09-09T01:44:29;82.38;;;33.45;;
10335;SDS011;5213;53.548;9.930;2022-09-09T01:46:55;80.07;;;33.13;;
10335;SDS011;5213;53.548;9.930;2022-09-09T01:49:21;79.53;;;32.03;;
10335;SDS011;5213;53.548;9.930;2022-09-09T01:51:49;95.63;;;33.40;;
10335;SDS011;5213;53.548;9.930;2022-09-09T01:54:18;108.07;;;36.72;;
10335;SDS011;5213;53.548;9.930;2022-09-09T02:02:13;84.07;;;32.90;;
10335;SDS011;5213;53.548;9.930;2022-09-09T02:04:44;75.05;;;32.70;;
10335;SDS011;5213;53.548;9.930;2022-09-09T02:10:12;65.15;;;30.73;;
10335;SDS011;5213;53.548;9.930;2022-09-09T02:12:46;68.85;;;31.30;;
10335;SDS011;5213;53.548;9.930;2022-09-09T02:15:17;70.95;;;31.80;;
10335;SDS011;5213;53.548;9.930;2022-09-09T02:17:49;70.35;;;31.50;;
10335;SDS011;5213;53.548;9.930;2022-09-09T02:20:17;75.32;;;32.13;;
10335;SDS011;5213;53.548;9.930;2022-09-09T02:22:45;110.88;;;33.40;;
10335;SDS011;5213;53.548;9.930;2022-09-09T02:25:14;75.65;;;31.38;;
10335;SDS011;5213;53.548;9.930;2022-09-09T02:27:43;79.95;;;31.48;;
10335;SDS011;5213;53.548;9.930;2022-09-09T02:30:11;79.75;;;30.73;;
10335;SDS011;5213;53.548;9.930;2022-09-09T02:32:38;78.45;;;31.02;;
10335;SDS011;5213;53.548;9.930;2022-09-09T02:35:10;70.53;;;30.80;;
10335;SDS011;5213;53.548;9.930;2022-09-09T02:37:39;70.00;;;30.00;;
10335;SDS011;5213;53.548;9.930;2022-09-09T02:40:08;72.25;;;30.95;;
10335;SDS011;5213;53.548;9.930;2022-09-09T02:42:39;68.10;;;29.98;;
10335;SDS011;5213;53.548;9.930;2022-09-09T02:45:07;64.80;;;30.27;;
10335;SDS011;5213;53.548;9.930;2022-09-09T02:53:06;56.08;;;26.90;;
10335;SDS011;5213;53.548;9.930;2022-09-09T02:55:40;57.28;;;27.02;;
10335;SDS011;5213;53.548;9.930;2022-09-09T02:58:16;59.15;;;27.15;;
10335;SDS011;5213;53.548;9.930;2022-09-09T03:00:44;54.63;;;28.13;;
10335;SDS011;5213;53.548;9.930;2022-09-09T03:03:11;51.85;;;26.63;;
10335;SDS011;5213;53.548;9.930;2022-09-09T03:05:37;55.55;;;27.75;;
10335;SDS011;5213;53.548;9.930;2022-09-09T03:08:03;55.47;;;27.15;;
10335;SDS011;5213;53.548;9.930;2022-09-09T03:10:30;56.20;;;27.73;;
10335;SDS011;5213;53.548;9.930;2022-09-09T03:12:57;58.25;;;27.63;;
10335;SDS011;5213;53.548;9.930;2022-09-09T03:15:22;50.70;;;26.17;;
10335;SDS011;5213;53.548;9.930;2022-09-09T03:17:48;53.85;;;27.52;;
10335;SDS011;5213;53.548;9.930;2022-09-09T03:20:14;54.58;;;26.00;;
10335;SDS011;5213;53.548;9.930;2022-09-09T03:22:39;47.83;;;25.98;;
10335;SDS011;5213;53.548;9.930;2022-09-09T03:25:05;50.92;;;26.05;;
10335;SDS011;5213;53.548;9.930;2022-09-09T03:27:31;50.65;;;25.90;;
10335;SDS011;5213;53.548;9.930;2022-09-09T03:29:57;52.10;;;26.00;;
10335;SDS011;5213;53.548;9.930;2022-09-09T03:32:23;49.90;;;26.20;;
10335;SDS011;5213;53.548;9.930;2022-09-09T03:34:50;47.97;;;25.58;;
10335;SDS011;5213;53.548;9.930;2022-09-09T03:37:17;46.75;;;25.67;;
10335;SDS011;5213;53.548;9.930;2022-09-09T03:39:43;46.25;;;24.23;;
10335;SDS011;5213;53.548;9.930;2022-09-09T03:42:11;49.15;;;25.00;;
10335;SDS011;5213;53.548;9.930;2022-09-09T03:44:39;52.03;;;25.08;;
10335;SDS011;5213;53.548;9.930;2022-09-09T03:47:06;45.25;;;25.20;;
10335;SDS011;5213;53.548;9.930;2022-09-09T03:49:31;48.05;;;24.92;;
10335;SDS011;5213;53.548;9.930;2022-09-09T03:51:57;49.42;;;25.92;;
10335;SDS011;5213;53.548;9.930;2022-09-09T03:54:24;47.35;;;24.77;;
10335;SDS011;5213;53.548;9.930;2022-09-09T03:56:50;51.58;;;25.67;;
10335;SDS011;5213;53.548;9.930;2022-09-09T03:59:15;55.70;;;26.95;;
10335;SDS011;5213;53.548;9.930;2022-09-09T04:01:41;49.67;;;25.70;;
10335;SDS011;5213;53.548;9.930;2022-09-09T04:04:07;57.65;;;26.23;;
10335;SDS011;5213;53.548;9.930;2022-09-09T04:06:34;55.72;;;27.23;;
10335;SDS011;5213;53.548;9.930;2022-09-09T04:09:00;53.15;;;26.30;;
10335;SDS011;5213;53.548;9.930;2022-09-09T04:11:28;51.55;;;27.48;;
10335;SDS011;5213;53.548;9.930;2022-09-09T04:13:54;48.60;;;25.25;;
10335;SDS011;5213;53.548;9.930;2022-09-09T04:16:19;52.70;;;26.33;;
10335;SDS011;5213;53.548;9.930;2022-09-09T04:18:45;53.53;;;26.30;;
10335;SDS011;5213;53.548;9.930;2022-09-09T04:21:11;56.25;;;27.50;;
10335;SDS011;5213;53.548;9.930;2022-09-09T04:23:37;48.17;;;26.25;;
10335;SDS011;5213;53.548;9.930;2022-09-09T04:26:04;45.95;;;25.33;;
10335;SDS011;5213;53.548;9.930;2022-09-09T04:28:31;51.40;;;25.42;;
10335;SDS011;5213;53.548;9.930;2022-09-09T04:31:14;47.78;;;25.90;;
10335;SDS011;5213;53.548;9.930;2022-09-09T04:33:43;51.83;;;25.05;;
10335;SDS011;5213;53.548;9.930;2022-09-09T04:36:08;58.67;;;25.85;;
10335;SDS011;5213;53.548;9.930;2022-09-09T04:38:34;47.10;;;24.95;;
10335;SDS011;5213;53.548;9.930;2022-09-09T04:41:00;52.22;;;25.75;;
10335;SDS011;5213;53.548;9.930;2022-09-09T04:43:26;49.40;;;25.48;;
10335;SDS011;5213;53.548;9.930;2022-09-09T04:45:52;50.10;;;26.20;;
10335;SDS011;5213;53.548;9.930;2022-09-09T04:48:18;49.40;;;25.25;;
10335;SDS011;5213;53.548;9.930;2022-09-09T04:50:44;46.53;;;24.83;;
10335;SDS011;5213;53.548;9.930;2022-09-09T04:53:21;45.00;;;24.58;;
10335;SDS011;5213;53.548;9.930;2022-09-09T04:55:47;45.78;;;23.05;;
10335;SDS011;5213;53.548;9.930;2022-09-09T04:58:13;45.53;;;23.90;;
10335;SDS011;5213;53.548;9.930;2022-09-09T05:00:39;42.63;;;22.73;;
10335;SDS011;5213;53.548;9.930;2022-09-09T05:03:05;39.17;;;21.60;;
10335;SDS011;5213;53.548;9.930;2022-09-09T05:05:31;32.15;;;20.38;;
10335;SDS011;5213;53.548;9.930;2022-09-09T05:08:05;34.95;;;20.98;;
10335;SDS011;5213;53.548;9.930;2022-09-09T05:10:33;28.70;;;19.15;;
10335;SDS011;5213;53.548;9.930;2022-09-09T05:13:02;34.33;;;20.40;;
10335;SDS011;5213;53.548;9.930;2022-09-09T05:15:29;31.17;;;19.30;;
10335;SDS011;5213;53.548;9.930;2022-09-09T05:17:58;31.90;;;19.02;;
10335;SDS011;5213;53.548;9.930;2022-09-09T05:20:25;30.92;;;19.70;;
10335;SDS011;5213;53.548;9.930;2022-09-09T05:22:55;29.75;;;18.88;;
10335;SDS011;5213;53.548;9.930;2022-09-09T05:25:21;28.75;;;19.38;;
10335;SDS011;5213;53.548;9.930;2022-09-09T05:27:51;28.60;;;18.88;;
10335;SDS011;5213;53.548;9.930;2022-09-09T05:30:17;28.70;;;18.27;;
10335;SDS011;5213;53.548;9.930;2022-09-09T05:32:43;29.23;;;18.77;;
10335;SDS011;5213;53.548;9.930;2022-09-09T05:35:09;27.13;;;17.40;;
10335;SDS011;5213;53.548;9.930;2022-09-09T05:37:35;27.15;;;18.40;;
10335;SDS011;5213;53.548;9.930;2022-09-09T05:40:00;26.48;;;18.35;;
10335;SDS011;5213;53.548;9.930;2022-09-09T05:42:29;27.33;;;18.00;;
10335;SDS011;5213;53.548;9.930;2022-09-09T05:44:55;25.70;;;17.60;;
10335;SDS011;5213;53.548;9.930;2022-09-09T05:47:22;28.45;;;18.80;;
10335;SDS011;5213;53.548;9.930;2022-09-09T05:49:48;28.98;;;18.65;;
10335;SDS011;5213;53.548;9.930;2022-09-09T05:52:14;30.02;;;19.05;;
10335;SDS011;5213;53.548;9.930;2022-09-09T05:54:40;26.48;;;17.92;;
10335;SDS011;5213;53.548;9.930;2022-09-09T05:57:06;32.15;;;19.48;;
10335;SDS011;5213;53.548;9.930;2022-09-09T05:59:32;25.35;;;18.40;;
10335;SDS011;5213;53.548;9.930;2022-09-09T06:01:57;24.25;;;18.00;;
10335;SDS011;5213;53.548;9.930;2022-09-09T06:04:24;22.63;;;16.60;;
10335;SDS011;5213;53.548;9.930;2022-09-09T06:06:49;24.73;;;17.13;;
10335;SDS011;5213;53.548;9.930;2022-09-09T06:09:15;17.85;;;15.30;;
10335;SDS011;5213;53.548;9.930;2022-09-09T06:11:41;18.98;;;14.23;;
10335;SDS011;5213;53.548;9.930;2022-09-09T06:14:07;17.40;;;13.60;;
10335;SDS011;5213;53.548;9.930;2022-09-09T06:16:33;18.20;;;12.82;;
10335;SDS011;5213;53.548;9.930;2022-09-09T06:18:59;15.88;;;12.75;;
10335;SDS011;5213;53.548;9.930;2022-09-09T06:21:31;17.20;;;12.18;;
10335;SDS011;5213;53.548;9.930;2022-09-09T06:23:59;14.95;;;11.73;;
10335;SDS011;5213;53.548;9.930;2022-09-09T06:26:26;14.65;;;11.68;;
10335;SDS011;5213;53.548;9.930;2022-09-09T06:28:56;13.25;;;10.68;;
10335;SDS011;5213;53.548;9.930;2022-09-09T06:31:23;18.08;;;10.95;;
10335;SDS011;5213;53.548;9.930;2022-09-09T06:33:50;12.05;;;10.52;;
10335;SDS011;5213;53.548;9.930;2022-09-09T06:36:18;15.60;;;11.07;;
10335;SDS011;5213;53.548;9.930;2022-09-09T06:38:46;11.82;;;8.52;;
10335;SDS011;5213;53.548;9.930;2022-09-09T06:41:13;12.10;;;9.40;;
10335;SDS011;5213;53.548;9.930;2022-09-09T06:43:40;11.18;;;8.52;;
10335;SDS011;5213;53.548;9.930;2022-09-09T06:46:13;7.63;;;6.82;;
10335;SDS011;5213;53.548;9.930;2022-09-09T06:48:52;8.07;;;7.28;;
10335;SDS011;5213;53.548;9.930;2022-09-09T06:51:21;8.50;;;7.15;;
10335;SDS011;5213;53.548;9.930;2022-09-09T06:53:50;8.90;;;6.95;;
10335;SDS011;5213;53.548;9.930;2022-09-09T06:56:18;10.45;;;7.93;;
10335;SDS011;5213;53.548;9.930;2022-09-09T06:58:44;8.82;;;6.65;;
10335;SDS011;5213;53.548;9.930;2022-09-09T07:01:14;12.50;;;6.78;;
10335;SDS011;5213;53.548;9.930;2022-09-09T07:03:45;9.20;;;6.80;;
10335;SDS011;5213;53.548;9.930;2022-09-09T07:06:20;10.55;;;6.50;;
10335;SDS011;5213;53.548;9.930;2022-09-09T07:08:56;7.75;;;5.20;;
10335;SDS011;5213;53.548;9.930;2022-09-09T07:11:27;6.35;;;5.63;;
10335;SDS011;5213;53.548;9.930;2022-09-09T07:13:54;7.60;;;6.10;;
10335;SDS011;5213;53.548;9.930;2022-09-09T07:16:20;6.85;;;4.85;;
10335;SDS011;5213;53.548;9.930;2022-09-09T07:18:49;5.55;;;4.95;;
10335;SDS011;5213;53.548;9.930;2022-09-09T07:21:15;6.63;;;4.82;;
10335;SDS011;5213;53.548;9.930;2022-09-09T07:23:41;8.13;;;5.28;;
10335;SDS011;5213;53.548;9.930;2022-09-09T07:26:11;6.53;;;4.63;;
10335;SDS011;5213;53.548;9.930;2022-09-09T07:28:38;4.57;;;3.75;;
10335;SDS011;5213;53.548;9.930;2022-09-09T07:31:05;6.78;;;4.20;;
10335;SDS011;5213;53.548;9.930;2022-09-09T07:33:33;5.45;;;3.70;;
10335;SDS011;5213;53.548;9.930;2022-09-09T07:36:19;4.60;;;3.30;;
10335;SDS011;5213;53.548;9.930;2022-09-09T07:38:52;6.43;;;3.75;;
10335;SDS011;5213;53.548;9.930;2022-09-09T07:41:29;3.72;;;3.40;;
10335;SDS011;5213;53.548;9.930;2022-09-09T07:43:59;6.55;;;3.92;;
10335;SDS011;5213;53.548;9.930;2022-09-09T07:46:28;5.70;;;3.50;;
10335;SDS011;5213;53.548;9.930;2022-09-09T07:48:54;4.95;;;3.55;;
10335;SDS011;5213;53.548;9.930;2022-09-09T07:51:26;5.38;;;3.80;;
10335;SDS011;5213;53.548;9.930;2022-09-09T07:53:55;5.30;;;3.60;;
10335;SDS011;5213;53.548;9.930;2022-09-09T07:56:23;3.60;;;3.30;;
10335;SDS011;5213;53.548;9.930;2022-09-09T07:58:50;5.80;;;3.38;;
10335;SDS011;5213;53.548;9.930;2022-09-09T08:01:18;4.38;;;3.15;;
10335;SDS011;5213;53.548;9.930;2022-09-09T08:03:46;5.88;;;3.50;;
10335;SDS011;5213;53.548;9.930;2022-09-09T08:06:17;4.13;;;3.65;;
10335;SDS011;5213;53.548;9.930;2022-09-09T08:08:43;4.55;;;3.47;;
10335;SDS011;5213;53.548;9.930;2022-09-09T08:11:12;5.47;;;3.55;;
10335;SDS011;5213;53.548;9.930;2022-09-09T08:13:42;4.00;;;3.53;;
10335;SDS011;5213;53.548;9.930;2022-09-09T08:18:39;7.35;;;3.20;;
10335;SDS011;5213;53.548;9.930;2022-09-09T08:21:12;3.17;;;2.88;;
10335;SDS011;5213;53.548;9.930;2022-09-09T08:23:43;3.78;;;2.92;;
10335;SDS011;5213;53.548;9.930;2022-09-09T08:26:20;3.92;;;2.88;;
10335;SDS011;5213;53.548;9.930;2022-09-09T08:28:48;3.97;;;3.00;;
10335;SDS011;5213;53.548;9.930;2022-09-09T08:31:21;2.92;;;2.60;;
10335;SDS011;5213;53.548;9.930;2022-09-09T08:33:49;3.83;;;2.50;;
10335;SDS011;5213;53.548;9.930;2022-09-09T08:36:17;2.50;;;2.30;;
10335;SDS011;5213;53.548;9.930;2022-09-09T08:38:47;4.55;;;2.58;;
10335;SDS011;5213;53.548;9.930;2022-09-09T08:44:13;3.67;;;2.70;;
10335;SDS011;5213;53.548;9.930;2022-09-09T08:55:35;2.80;;;2.20;;
10335;SDS011;5213;53.548;9.930;2022-09-09T08:58:16;4.13;;;2.25;;
10335;SDS011;5213;53.548;9.930;2022-09-09T09:03:43;3.10;;;2.40;;
10335;SDS011;5213;53.548;9.930;2022-09-09T09:06:26;3.33;;;2.50;;
10335;SDS011;5213;53.548;9.930;2022-09-09T09:11:26;4.88;;;4.15;;
10335;SDS011;5213;53.548;9.930;2022-09-09T09:13:57;3.75;;;2.20;;
10335;SDS011;5213;53.548;9.930;2022-09-09T09:16:32;2.65;;;2.15;;
10335;SDS011;5213;53.548;9.930;2022-09-09T09:19:01;3.05;;;2.20;;
10335;SDS011;5213;53.548;9.930;2022-09-09T09:21:41;4.10;;;1.92;;
10335;SDS011;5213;53.548;9.930;2022-09-09T09:24:13;3.10;;;2.20;;
10335;SDS011;5213;53.548;9.930;2022-09-09T09:26:46;2.47;;;1.88;;
10335;SDS011;5213;53.548;9.930;2022-09-09T09:29:13;3.75;;;1.95;;
10335;SDS011;5213;53.548;9.930;2022-09-09T09:31:45;1.70;;;1.58;;
10335;SDS011;5213;53.548;9.930;2022-09-09T09:34:17;3.15;;;2.05;;
10335;SDS011;5213;53.548;9.930;2022-09-09T09:36:59;2.72;;;1.58;;
10335;SDS011;5213;53.548;9.930;2022-09-09T09:39:30;1.73;;;1.50;;
10335;SDS011;5213;53.548;9.930;2022-09-09T09:42:11;2.47;;;1.50;;
10335;SDS011;5213;53.548;9.930;2022-09-09T09:44:39;2.38;;;1.48;;
10335;SDS011;5213;53.548;9.930;2022-09-09T09:47:10;2.08;;;1.58;;
10335;SDS011;5213;53.548;9.930;2022-09-09T09:52:51;2.63;;;1.60;;
10335;SDS011;5213;53.548;9.930;2022-09-09T09:55:19;2.47;;;1.63;;
10335;SDS011;5213;53.548;9.930;2022-09-09T09:57:45;2.97;;;1.52;;
10335;SDS011;5213;53.548;9.930;2022-09-09T10:02:40;3.42;;;1.90;;
10335;SDS011;5213;53.548;9.930;2022-09-09T10:05:24;2.05;;;1.77;;
10335;SDS011;5213;53.548;9.930;2022-09-09T10:13:18;3.63;;;1.70;;
10335;SDS011;5213;53.548;9.930;2022-09-09T10:16:01;1.40;;;1.23;;
10335;SDS011;5213;53.548;9.930;2022-09-09T10:19:03;2.67;;;1.67;;
10335;SDS011;5213;53.548;9.930;2022-09-09T10:21:56;1.85;;;1.40;;
10335;SDS011;5213;53.548;9.930;2022-09-09T10:30:18;4.43;;;1.92;;
10335;SDS011;5213;53.548;9.930;2022-09-09T10:33:09;2.17;;;2.08;;
10335;SDS011;5213;53.548;9.930;2022-09-09T10:43:33;2.05;;;1.70;;
10335;SDS011;5213;53.548;9.930;2022-09-09T10:51:33;3.65;;;1.70;;
10335;SDS011;5213;53.548;9.930;2022-09-09T10:56:33;6.95;;;2.42;;
10335;SDS011;5213;53.548;9.930;2022-09-09T10:59:02;4.22;;;1.88;;
10335;SDS011;5213;53.548;9.930;2022-09-09T11:01:31;2.25;;;1.70;;
10335;SDS011;5213;53.548;9.930;2022-09-09T11:04:05;2.65;;;1.75;;
10335;SDS011;5213;53.548;9.930;2022-09-09T11:06:46;2.40;;;1.65;;
10335;SDS011;5213;53.548;9.930;2022-09-09T11:09:18;3.50;;;2.53;;
10335;SDS011;5213;53.548;9.930;2022-09-09T11:11:54;3.22;;;1.70;;
10335;SDS011;5213;53.548;9.930;2022-09-09T11:14:42;6.55;;;2.20;;
10335;SDS011;5213;53.548;9.930;2022-09-09T11:17:20;3.88;;;1.90;;
10335;SDS011;5213;53.548;9.930;2022-09-09T11:19:49;3.00;;;1.50;;
10335;SDS011;5213;53.548;9.930;2022-09-09T11:25:14;2.88;;;1.70;;
10335;SDS011;5213;53.548;9.930;2022-09-09T11:30:46;3.80;;;2.25;;
10335;SDS011;5213;53.548;9.930;2022-09-09T11:44:37;3.08;;;1.50;;
10335;SDS011;5213;53.548;9.930;2022-09-09T11:47:02;3.95;;;1.80;;
10335;SDS011;5213;53.548;9.930;2022-09-09T11:49:29;3.53;;;1.80;;
10335;SDS011;5213;53.548;9.930;2022-09-09T11:52:36;1.80;;;1.40;;
10335;SDS011;5213;53.548;9.930;2022-09-09T11:55:26;2.55;;;1.60;;
10335;SDS011;5213;53.548;9.930;2022-09-09T11:57:58;1.50;;;1.40;;
10335;SDS011;5213;53.548;9.930;2022-09-09T12:00:31;3.20;;;1.50;;
10335;SDS011;5213;53.548;9.930;2022-09-09T12:02:58;3.03;;;1.70;;
10335;SDS011;5213;53.548;9.930;2022-09-09T12:05:24;4.47;;;1.90;;
10335;SDS011;5213;53.548;9.930;2022-09-09T12:08:05;3.33;;;2.00;;
10335;SDS011;5213;53.548;9.930;2022-09-09T12:10:35;2.70;;;1.83;;
10335;SDS011;5213;53.548;9.930;2022-09-09T12:13:20;3.90;;;1.70;;
10335;SDS011;5213;53.548;9.930;2022-09-09T12:15:49;2.75;;;1.75;;
10335;SDS011;5213;53.548;9.930;2022-09-09T12:18:21;3.80;;;1.73;;
10335;SDS011;5213;53.548;9.930;2022-09-09T12:23:24;2.25;;;1.92;;
10335;SDS011;5213;53.548;9.930;2022-09-09T12:26:06;5.13;;;2.25;;
10335;SDS011;5213;53.548;9.930;2022-09-09T12:33:55;2.88;;;1.75;;
10335;SDS011;5213;53.548;9.930;2022-09-09T12:36:34;4.85;;;1.77;;
10335;SDS011;5213;53.548;9.930;2022-09-09T12:39:09;5.22;;;2.03;;
10335;SDS011;5213;53.548;9.930;2022-09-09T12:41:51;2.70;;;2.00;;
10335;SDS011;5213;53.548;9.930;2022-09-09T12:44:22;3.85;;;2.08;;
10335;SDS011;5213;53.548;9.930;2022-09-09T12:46:53;2.50;;;1.83;;
10335;SDS011;5213;53.548;9.930;2022-09-09T12:49:31;2.03;;;1.90;;
10335;SDS011;5213;53.548;9.930;2022-09-09T12:52:06;3.42;;;1.77;;
10335;SDS011;5213;53.548;9.930;2022-09-09T12:54:35;2.67;;;2.00;;
10335;SDS011;5213;53.548;9.930;2022-09-09T12:57:02;3.03;;;2.17;;
10335;SDS011;5213;53.548;9.930;2022-09-09T12:59:37;3.92;;;2.15;;
10335;SDS011;5213;53.548;9.930;2022-09-09T13:02:24;2.97;;;2.30;;
10335;SDS011;5213;53.548;9.930;2022-09-09T13:04:52;3.03;;;2.28;;
10335;SDS011;5213;53.548;9.930;2022-09-09T13:07:20;4.88;;;2.63;;
10335;SDS011;5213;53.548;9.930;2022-09-09T13:09:47;4.57;;;2.40;;
10335;SDS011;5213;53.548;9.930;2022-09-09T13:12:18;4.57;;;2.53;;
10335;SDS011;5213;53.548;9.930;2022-09-09T13:14:46;4.65;;;3.20;;
10335;SDS011;5213;53.548;9.930;2022-09-09T13:17:25;5.05;;;2.80;;
10335;SDS011;5213;53.548;9.930;2022-09-09T13:19:54;4.90;;;2.88;;
10335;SDS011;5213;53.548;9.930;2022-09-09T13:24:47;8.57;;;4.28;;
10335;SDS011;5213;53.548;9.930;2022-09-09T13:27:51;7.47;;;2.97;;
10335;SDS011;5213;53.548;9.930;2022-09-09T13:35:54;6.05;;;2.92;;
10335;SDS011;5213;53.548;9.930;2022-09-09T13:38:20;10.15;;;2.90;;
10335;SDS011;5213;53.548;9.930;2022-09-09T13:43:28;5.72;;;3.05;;
10335;SDS011;5213;53.548;9.930;2022-09-09T13:45:56;6.40;;;3.00;;
10335;SDS011;5213;53.548;9.930;2022-09-09T13:48:23;5.93;;;2.40;;
10335;SDS011;5213;53.548;9.930;2022-09-09T13:50:56;5.00;;;3.28;;
10335;SDS011;5213;53.548;9.930;2022-09-09T13:53:22;5.18;;;2.45;;
10335;SDS011;5213;53.548;9.930;2022-09-09T13:55:48;4.10;;;2.78;;
10335;SDS011;5213;53.548;9.930;2022-09-09T13:58:15;5.68;;;2.92;;
10335;SDS011;5213;53.548;9.930;2022-09-09T14:00:43;3.15;;;2.70;;
10335;SDS011;5213;53.548;9.930;2022-09-09T14:03:10;4.70;;;3.35;;
10335;SDS011;5213;53.548;9.930;2022-09-09T14:05:35;4.28;;;3.20;;
10335;SDS011;5213;53.548;9.930;2022-09-09T14:08:06;6.63;;;3.75;;
10335;SDS011;5213;53.548;9.930;2022-09-09T14:10:32;5.85;;;3.97;;
10335;SDS011;5213;53.548;9.930;2022-09-09T14:13:00;4.07;;;3.25;;
10335;SDS011;5213;53.548;9.930;2022-09-09T14:15:27;5.10;;;3.53;;
10335;SDS011;5213;53.548;9.930;2022-09-09T14:17:54;6.45;;;4.00;;
10335;SDS011;5213;53.548;9.930;2022-09-09T14:20:20;5.13;;;4.22;;
10335;SDS011;5213;53.548;9.930;2022-09-09T14:22:46;5.25;;;3.85;;
10335;SDS011;5213;53.548;9.930;2022-09-09T14:25:12;5.35;;;4.20;;
10335;SDS011;5213;53.548;9.930;2022-09-09T14:27:39;4.47;;;3.95;;
10335;SDS011;5213;53.548;9.930;2022-09-09T14:30:05;4.45;;;3.40;;
10335;SDS011;5213;53.548;9.930;2022-09-09T14:32:49;3.05;;;2.67;;
10335;SDS011;5213;53.548;9.930;2022-09-09T14:35:23;5.13;;;2.63;;
10335;SDS011;5213;53.548;9.930;2022-09-09T14:37:49;5.10;;;2.63;;
10335;SDS011;5213;53.548;9.930;2022-09-09T14:40:15;5.68;;;2.20;;
10335;SDS011;5213;53.548;9.930;2022-09-09T14:42:41;2.33;;;2.05;;
10335;SDS011;5213;53.548;9.930;2022-09-09T14:45:07;3.05;;;2.10;;
10335;SDS011;5213;53.548;9.930;2022-09-09T14:47:34;2.80;;;2.47;;
10335;SDS011;5213;53.548;9.930;2022-09-09T14:50:00;5.85;;;2.65;;
10335;SDS011;5213;53.548;9.930;2022-09-09T14:52:29;2.63;;;2.40;;
10335;SDS011;5213;53.548;9.930;2022-09-09T14:54:55;3.28;;;2.97;;
10335;SDS011;5213;53.548;9.930;2022-09-09T14:57:22;2.70;;;2.50;;
10335;SDS011;5213;53.548;9.930;2022-09-09T14:59:47;3.42;;;2.45;;
10335;SDS011;5213;53.548;9.930;2022-09-09T15:02:15;3.00;;;2.72;;
10335;SDS011;5213;53.548;9.930;2022-09-09T15:04:41;2.95;;;2.38;;
10335;SDS011;5213;53.548;9.930;2022-09-09T15:07:09;3.47;;;2.25;;
10335;SDS011;5213;53.548;9.930;2022-09-09T15:09:35;2.75;;;2.42;;
10335;SDS011;5213;53.548;9.930;2022-09-09T15:12:02;2.75;;;2.45;;
10335;SDS011;5213;53.548;9.930;2022-09-09T15:14:29;4.22;;;2.40;;
10335;SDS011;5213;53.548;9.930;2022-09-09T15:16:55;3.35;;;2.30;;
10335;SDS011;5213;53.548;9.930;2022-09-09T15:19:21;2.00;;;1.90;;
10335;SDS011;5213;53.548;9.930;2022-09-09T15:21:47;3.88;;;2.25;;
10335;SDS011;5213;53.548;9.930;2022-09-09T15:24:14;2.55;;;2.20;;
10335;SDS011;5213;53.548;9.930;2022-09-09T15:26:41;3.22;;;2.13;;
10335;SDS011;5213;53.548;9.930;2022-09-09T15:29:07;3.35;;;2.25;;
10335;SDS011;5213;53.548;9.930;2022-09-09T15:31:33;3.97;;;1.92;;
10335;SDS011;5213;53.548;9.930;2022-09-09T15:34:03;3.67;;;2.38;;
10335;SDS011;5213;53.548;9.930;2022-09-09T15:36:30;3.85;;;2.63;;
10335;SDS011;5213;53.548;9.930;2022-09-09T15:39:00;3.92;;;2.40;;
10335;SDS011;5213;53.548;9.930;2022-09-09T15:41:26;2.70;;;2.20;;
10335;SDS011;5213;53.548;9.930;2022-09-09T15:43:54;2.63;;;2.30;;
10335;SDS011;5213;53.548;9.930;2022-09-09T15:46:25;2.80;;;2.15;;
10335;SDS011;5213;53.548;9.930;2022-09-09T15:48:53;2.65;;;1.83;;
10335;SDS011;5213;53.548;9.930;2022-09-09T15:51:19;1.75;;;1.65;;
10335;SDS011;5213;53.548;9.930;2022-09-09T15:53:45;1.80;;;1.50;;
10335;SDS011;5213;53.548;9.930;2022-09-09T15:56:12;1.98;;;1.80;;
10335;SDS011;5213;53.548;9.930;2022-09-09T15:58:38;3.00;;;1.70;;
10335;SDS011;5213;53.548;9.930;2022-09-09T16:01:05;1.98;;;1.80;;
10335;SDS011;5213;53.548;9.930;2022-09-09T16:03:35;2.40;;;2.05;;
10335;SDS011;5213;53.548;9.930;2022-09-09T16:06:03;3.60;;;2.65;;
10335;SDS011;5213;53.548;9.930;2022-09-09T16:08:37;1.92;;;1.80;;
10335;SDS011;5213;53.548;9.930;2022-09-09T16:11:04;3.20;;;1.75;;
10335;SDS011;5213;53.548;9.930;2022-09-09T16:13:32;1.63;;;1.52;;
10335;SDS011;5213;53.548;9.930;2022-09-09T16:15:58;1.67;;;1.58;;
10335;SDS011;5213;53.548;9.930;2022-09-09T16:18:24;2.08;;;1.88;;
10335;SDS011;5213;53.548;9.930;2022-09-09T16:20:54;1.85;;;1.30;;
10335;SDS011;5213;53.548;9.930;2022-09-09T16:23:20;3.67;;;1.50;;
10335;SDS011;5213;53.548;9.930;2022-09-09T16:25:55;3.40;;;1.48;;
10335;SDS011;5213;53.548;9.930;2022-09-09T16:28:22;1.40;;;1.30;;
10335;SDS011;5213;53.548;9.930;2022-09-09T16:30:48;1.75;;;1.35;;
10335;SDS011;5213;53.548;9.930;2022-09-09T16:33:14;1.83;;;1.60;;
10335;SDS011;5213;53.548;9.930;2022-09-09T16:35:41;1.60;;;1.50;;
10335;SDS011;5213;53.548;9.930;2022-09-09T16:38:07;1.75;;;1.65;;
10335;SDS011;5213;53.548;9.930;2022-09-09T16:40:33;3.15;;;1.70;;
10335;SDS011;5213;53.548;9.930;2022-09-09T16:43:00;1.88;;;1.50;;
10335;SDS011;5213;53.548;9.930;2022-09-09T16:45:26;2.97;;;1.58;;
10335;SDS011;5213;53.548;9.930;2022-09-09T16:47:52;1.77;;;1.65;;
10335;SDS011;5213;53.548;9.930;2022-09-09T16:50:19;2.17;;;1.40;;
10335;SDS011;5213;53.548;9.930;2022-09-09T16:52:45;2.40;;;1.60;;
10335;SDS011;5213;53.548;9.930;2022-09-09T16:55:11;1.88;;;1.60;;
10335;SDS011;5213;53.548;9.930;2022-09-09T16:57:37;3.22;;;1.50;;
10335;SDS011;5213;53.548;9.930;2022-09-09T17:00:03;2.00;;;1.65;;
10335;SDS011;5213;53.548;9.930;2022-09-09T17:02:31;2.05;;;1.60;;
10335;SDS011;5213;53.548;9.930;2022-09-09T17:04:57;1.77;;;1.67;;
10335;SDS011;5213;53.548;9.930;2022-09-09T17:07:24;4.05;;;1.73;;
10335;SDS011;5213;53.548;9.930;2022-09-09T17:09:50;1.73;;;1.60;;
10335;SDS011;5213;53.548;9.930;2022-09-09T17:12:19;2.95;;;1.80;;
10335;SDS011;5213;53.548;9.930;2022-09-09T17:14:45;2.53;;;1.60;;
10335;SDS011;5213;53.548;9.930;2022-09-09T17:17:11;2.85;;;1.85;;
10335;SDS011;5213;53.548;9.930;2022-09-09T17:19:37;1.77;;;1.45;;
10335;SDS011;5213;53.548;9.930;2022-09-09T17:22:03;1.85;;;1.70;;
10335;SDS011;5213;53.548;9.930;2022-09-09T17:24:29;3.70;;;1.70;;
10335;SDS011;5213;53.548;9.930;2022-09-09T17:26:56;3.30;;;1.98;;